Time;durP1;ratioP1;P1;durP2;ratioP2;P2;SDS_P1;SDS_P2;PMS_P1;PMS_P2;Temp;Humidity;BMP_temperature;BMP_pressure;BME280_temperature;BME280_humidity;BME280_pressure;Samples;Min_cycle;Max_cycle;Signal;HPM_P1;HPM_P2
2023/02/07 00:01:51;;;;;;;;;;;;;;;0.70;nan;102593.72;5034654;28;19917;-87
2023/02/07 00:04:16;;;;;;;;;;;;;;;0.66;nan;102586.88;5019250;28;19923;-86
2023/02/07 00:06:41;;;;;;;;;;;;;;;0.69;nan;102581.59;5026727;28;20636;-86
2023/02/07 00:09:07;;;;;;;;;;;;;;;0.68;nan;102587.69;5025685;28;20035;-86
2023/02/07 00:11:32;;;;;;;;;;;;;;;0.65;nan;102595.59;5027257;28;20383;-88
2023/02/07 00:13:58;;;;;;;;;;;;;;;0.62;nan;102606.94;5022526;28;19933;-87
2023/02/07 00:16:24;;;;;;;;;;;;;;;0.65;nan;102610.34;5030250;28;20496;-86
2023/02/07 00:18:51;;;;;;;;;;;;;;;0.73;nan;102608.41;5025053;28;19960;-88
2023/02/07 00:21:17;;;;;;;;;;;;;;;0.80;nan;102608.22;5028294;28;20584;-87
2023/02/07 00:23:43;;;;;;;;;;;;;;;0.86;nan;102591.59;5031741;28;19924;-87
2023/02/07 00:26:08;;;;;;;;;;;;;;;0.93;nan;102585.34;5018560;28;19917;-87
2023/02/07 00:28:34;;;;;;;;;;;;;;;0.98;nan;102587.84;5030766;28;19960;-86
2023/02/07 00:31:06;;;;;;;;;;;;;;;0.92;nan;102586.22;5018404;28;19917;-88
2023/02/07 00:33:33;;;;;;;;;;;;;;;0.93;nan;102579.25;5030988;28;19992;-86
2023/02/07 00:36:02;;;;;;;;;;;;;;;0.93;nan;102582.75;5032882;28;19960;-87
2023/02/07 00:38:27;;;;;;;;;;;;;;;0.99;nan;102579.09;5032772;28;20302;-88
2023/02/07 00:40:52;;;;;;;;;;;;;;;0.94;nan;102588.78;5032648;28;19921;-87
2023/02/07 00:43:18;;;;;;;;;;;;;;;0.86;nan;102586.41;5016221;28;19964;-87
2023/02/07 00:45:43;;;;;;;;;;;;;;;0.78;nan;102596.97;5016668;28;19913;-87
2023/02/07 00:48:09;;;;;;;;;;;;;;;0.73;nan;102598.84;5032060;28;19960;-86
2023/02/07 00:50:34;;;;;;;;;;;;;;;0.74;nan;102610.09;5032699;28;20038;-86
2023/02/07 00:52:59;;;;;;;;;;;;;;;0.74;nan;102605.78;5023204;28;19928;-88
2023/02/07 00:55:25;;;;;;;;;;;;;;;0.78;nan;102598.72;5026498;28;20036;-87
2023/02/07 00:57:50;;;;;;;;;;;;;;;0.75;nan;102602.28;5020021;28;19925;-87
2023/02/07 01:00:15;;;;;;;;;;;;;;;0.76;nan;102592.69;5030225;28;19921;-87
2023/02/07 01:02:41;;;;;;;;;;;;;;;0.79;nan;102582.22;5025784;28;19924;-87
2023/02/07 01:05:06;;;;;;;;;;;;;;;0.87;nan;102589.84;5030435;28;20390;-87
2023/02/07 01:07:32;;;;;;;;;;;;;;;0.91;nan;102583.69;5036290;28;20132;-86
2023/02/07 01:09:57;;;;;;;;;;;;;;;0.89;nan;102588.91;5036121;28;19924;-86
2023/02/07 01:12:23;;;;;;;;;;;;;;;0.89;nan;102588.91;5034539;28;19913;-86
2023/02/07 01:14:48;;;;;;;;;;;;;;;0.86;nan;102583.78;5035283;28;19962;-87
2023/02/07 01:17:13;;;;;;;;;;;;;;;0.85;nan;102587.28;5033169;28;19920;-87
2023/02/07 01:19:39;;;;;;;;;;;;;;;0.80;nan;102582.19;5024569;28;20043;-87
2023/02/07 01:22:09;;;;;;;;;;;;;;;0.73;nan;102578.00;5019668;28;20382;-87
2023/02/07 01:24:34;;;;;;;;;;;;;;;0.67;nan;102582.50;5013365;28;19940;-86
2023/02/07 01:27:00;;;;;;;;;;;;;;;0.60;nan;102582.69;5013544;28;20287;-86
2023/02/07 01:29:25;;;;;;;;;;;;;;;0.57;nan;102576.66;5017496;28;20532;-87
2023/02/07 01:31:54;;;;;;;;;;;;;;;0.57;nan;102580.16;5027583;28;19996;-88
2023/02/07 01:34:19;;;;;;;;;;;;;;;0.66;nan;102592.06;5021119;28;19920;-86
2023/02/07 01:36:45;;;;;;;;;;;;;;;0.70;nan;102585.91;5032748;28;19917;-88
2023/02/07 01:39:12;;;;;;;;;;;;;;;0.73;nan;102585.81;5029354;28;19917;-88
2023/02/07 01:41:38;;;;;;;;;;;;;;;0.76;nan;102593.59;5031074;28;19913;-86
2023/02/07 01:44:03;;;;;;;;;;;;;;;0.67;nan;102586.00;5012127;28;19913;-87
2023/02/07 01:46:29;;;;;;;;;;;;;;;0.65;nan;102590.38;5023883;28;19956;-87
2023/02/07 01:48:57;;;;;;;;;;;;;;;0.66;nan;102594.69;5026072;28;19913;-87
2023/02/07 01:51:23;;;;;;;;;;;;;;;0.68;nan;102592.03;5017870;28;19921;-87
2023/02/07 01:53:51;;;;;;;;;;;;;;;0.62;nan;102593.03;5022648;28;19912;-86
2023/02/07 01:56:17;;;;;;;;;;;;;;;0.56;nan;102593.19;5024449;28;19979;-88
2023/02/07 01:58:43;;;;;;;;;;;;;;;0.49;nan;102596.84;5030098;28;19956;-87
2023/02/07 02:01:12;;;;;;;;;;;;;;;0.46;nan;102597.75;5021698;28;19919;-89
2023/02/07 02:03:42;;;;;;;;;;;;;;;0.46;nan;102605.56;5037425;28;20489;-89
2023/02/07 02:06:08;;;;;;;;;;;;;;;0.40;nan;102610.91;5029782;28;19966;-86
2023/02/07 02:08:36;;;;;;;;;;;;;;;0.36;nan;102611.88;5042065;28;19913;-86
2023/02/07 02:11:20;;;;;;;;;;;;;;;0.28;nan;102617.25;5043770;28;19913;-88
2023/02/07 02:13:56;;;;;;;;;;;;;;;0.23;nan;102616.50;5036983;28;19981;-88
2023/02/07 02:16:27;;;;;;;;;;;;;;;0.18;nan;102624.38;5062400;28;19925;-89
2023/02/07 02:19:11;;;;;;;;;;;;;;;0.19;nan;102638.25;5044548;28;19931;-87
2023/02/07 02:22:04;;;;;;;;;;;;;;;0.21;nan;102631.28;5034052;28;19917;-86
2023/02/07 02:24:50;;;;;;;;;;;;;;;0.20;nan;102633.03;5034191;28;20005;-87
2023/02/07 02:27:27;;;;;;;;;;;;;;;0.11;nan;102630.63;5022161;28;19916;-88
2023/02/07 02:30:03;;;;;;;;;;;;;;;0.03;nan;102635.13;5035883;28;20091;-87
2023/02/07 02:32:37;;;;;;;;;;;;;;;-0.05;nan;102637.03;5034440;28;20358;-86
2023/02/07 02:35:09;;;;;;;;;;;;;;;-0.05;nan;102631.81;5033778;28;19921;-88
2023/02/07 02:37:40;;;;;;;;;;;;;;;-0.06;nan;102630.13;5034993;28;19996;-86
2023/02/07 02:40:08;;;;;;;;;;;;;;;-0.07;nan;102623.19;5023953;28;20463;-88
2023/02/07 02:42:37;;;;;;;;;;;;;;;-0.09;nan;102612.84;5032970;28;19913;-86
2023/02/07 02:45:08;;;;;;;;;;;;;;;-0.12;nan;102607.72;5033581;28;19913;-86
2023/02/07 02:47:35;;;;;;;;;;;;;;;-0.14;nan;102606.00;5033741;28;19913;-87
2023/02/07 02:50:00;;;;;;;;;;;;;;;-0.17;nan;102609.53;5039275;28;19913;-86
2023/02/07 02:52:27;;;;;;;;;;;;;;;-0.19;nan;102608.72;5052201;28;20507;-86
2023/02/07 02:54:53;;;;;;;;;;;;;;;-0.29;nan;102625.38;5052907;28;19928;-86
2023/02/07 02:57:33;;;;;;;;;;;;;;;-0.36;nan;102619.44;5054014;28;19912;-86
2023/02/07 03:00:02;;;;;;;;;;;;;;;-0.46;nan;102620.50;5029165;28;19921;-85
2023/02/07 03:02:30;;;;;;;;;;;;;;;-0.58;nan;102624.19;5026903;28;19918;-86
2023/02/07 03:04:55;;;;;;;;;;;;;;;-0.72;nan;102623.59;5039285;28;19917;-86
2023/02/07 03:07:23;;;;;;;;;;;;;;;-0.83;nan;102620.31;5036244;28;19948;-85
2023/02/07 03:10:00;;;;;;;;;;;;;;;-0.93;nan;102617.00;5032438;28;19917;-86
2023/02/07 03:12:36;;;;;;;;;;;;;;;-1.01;nan;102624.09;5042441;28;19966;-86
2023/02/07 03:15:05;;;;;;;;;;;;;;;-1.16;nan;102620.00;5018905;28;19918;-86
2023/02/07 03:17:30;;;;;;;;;;;;;;;-1.20;nan;102619.19;5018399;28;20297;-87
2023/02/07 03:19:59;;;;;;;;;;;;;;;-1.28;nan;102613.28;5018555;28;19969;-86
2023/02/07 03:22:28;;;;;;;;;;;;;;;-1.39;nan;102613.44;5030822;28;19924;-88
2023/02/07 03:24:55;;;;;;;;;;;;;;;-1.42;nan;102608.28;5032425;28;19917;-88
2023/02/07 03:27:21;;;;;;;;;;;;;;;-1.50;nan;102603.22;5020837;28;19918;-88
2023/02/07 03:29:49;;;;;;;;;;;;;;;-1.63;nan;102609.47;5032822;28;19947;-89
2023/02/07 03:32:19;;;;;;;;;;;;;;;-1.74;nan;102606.16;5031909;28;19924;-88
2023/02/07 03:34:44;;;;;;;;;;;;;;;-1.85;nan;102621.88;5029993;28;19917;-88
2023/02/07 03:37:15;;;;;;;;;;;;;;;-1.92;nan;102623.69;5020998;28;19986;-89
2023/02/07 03:39:40;;;;;;;;;;;;;;;-1.97;nan;102628.09;5035948;28;19917;-88
2023/02/07 03:42:15;;;;;;;;;;;;;;;-2.02;nan;102629.03;5031594;28;19913;-90
2023/02/07 03:44:42;;;;;;;;;;;;;;;-2.00;nan;102622.94;5046028;28;19928;-88
2023/02/07 03:47:10;;;;;;;;;;;;;;;-1.88;nan;102616.75;5025993;28;19916;-87
2023/02/07 03:49:36;;;;;;;;;;;;;;;-1.72;nan;102623.44;5030710;28;20448;-87
2023/02/07 03:52:01;;;;;;;;;;;;;;;-1.61;nan;102625.88;5030232;28;19960;-89
2023/02/07 03:54:27;;;;;;;;;;;;;;;-1.52;nan;102611.91;5033769;28;19917;-87
2023/02/07 03:56:52;;;;;;;;;;;;;;;-1.55;nan;102619.72;5031874;28;20374;-85
2023/02/07 03:59:18;;;;;;;;;;;;;;;-1.58;nan;102612.00;5029169;28;20374;-84
2023/02/07 04:01:43;;;;;;;;;;;;;;;-1.55;nan;102610.22;5036790;28;20017;-86
2023/02/07 04:04:09;;;;;;;;;;;;;;;-1.60;nan;102613.75;5031014;28;19917;-87
2023/02/07 04:06:36;;;;;;;;;;;;;;;-1.66;nan;102608.66;5033796;28;19917;-86
2023/02/07 04:09:02;;;;;;;;;;;;;;;-1.72;nan;102609.59;5026361;28;19917;-88
2023/02/07 04:11:28;;;;;;;;;;;;;;;-1.74;nan;102609.63;5025577;28;19924;-86
2023/02/07 04:13:56;;;;;;;;;;;;;;;-1.80;nan;102601.94;5034420;28;20286;-87
2023/02/07 04:16:21;;;;;;;;;;;;;;;-1.87;nan;102602.03;5034055;28;20154;-85
2023/02/07 04:18:46;;;;;;;;;;;;;;;-1.97;nan;102602.16;5035212;28;19921;-85
2023/02/07 04:21:13;;;;;;;;;;;;;;;-2.04;nan;102608.28;5030890;28;19997;-85
2023/02/07 04:23:39;;;;;;;;;;;;;;;-2.04;nan;102604.84;5036630;28;19917;-85
2023/02/07 04:26:04;;;;;;;;;;;;;;;-2.09;nan;102597.13;5037165;28;20008;-86
2023/02/07 04:28:30;;;;;;;;;;;;;;;-2.11;nan;102595.44;5033188;28;19960;-85
2023/02/07 04:30:55;;;;;;;;;;;;;;;-2.19;nan;102605.91;5027880;28;19925;-85
2023/02/07 04:33:21;;;;;;;;;;;;;;;-2.29;nan;102605.13;5036866;28;19940;-85
2023/02/07 04:36:00;;;;;;;;;;;;;;;-2.39;nan;102606.97;5037470;28;19917;-85
2023/02/07 04:38:26;;;;;;;;;;;;;;;-2.49;nan;102618.31;5038526;28;19925;-85
2023/02/07 04:40:54;;;;;;;;;;;;;;;-2.58;nan;102611.50;5039247;28;19945;-86
2023/02/07 04:43:20;;;;;;;;;;;;;;;-2.63;nan;102618.47;5030744;28;19917;-85
2023/02/07 04:45:46;;;;;;;;;;;;;;;-2.68;nan;102621.97;5040653;28;19963;-85
2023/02/07 04:48:12;;;;;;;;;;;;;;;-2.72;nan;102622.88;5045863;28;19913;-86
2023/02/07 04:50:37;;;;;;;;;;;;;;;-2.75;nan;102625.50;5031951;28;19940;-85
2023/02/07 04:53:03;;;;;;;;;;;;;;;-2.77;nan;102623.78;5055970;28;19986;-84
2023/02/07 04:55:33;;;;;;;;;;;;;;;-2.73;nan;102628.94;5035592;28;19991;-85
2023/02/07 04:57:58;;;;;;;;;;;;;;;-2.75;nan;102633.28;5046345;28;19984;-85
2023/02/07 05:00:26;;;;;;;;;;;;;;;-2.75;nan;102631.53;5044422;28;19986;-84
2023/02/07 05:02:51;;;;;;;;;;;;;;;-2.76;nan;102642.78;5052529;28;19921;-85
2023/02/07 05:05:17;;;;;;;;;;;;;;;-2.85;nan;102633.34;5035865;28;19924;-85
2023/02/07 05:07:42;;;;;;;;;;;;;;;-2.91;nan;102633.41;5039465;28;19925;-84
2023/02/07 05:10:08;;;;;;;;;;;;;;;-2.95;nan;102644.66;5035937;28;20083;-85
2023/02/07 05:12:33;;;;;;;;;;;;;;;-3.00;nan;102638.69;5040133;28;19936;-85
2023/02/07 05:14:59;;;;;;;;;;;;;;;-3.04;nan;102649.91;5039730;28;20277;-85
2023/02/07 05:17:25;;;;;;;;;;;;;;;-3.08;nan;102655.97;5035900;28;19917;-85
2023/02/07 05:19:51;;;;;;;;;;;;;;;-3.14;nan;102654.31;5024346;28;19921;-85
2023/02/07 05:22:16;;;;;;;;;;;;;;;-3.15;nan;102651.72;5027871;28;20226;-85
2023/02/07 05:24:42;;;;;;;;;;;;;;;-3.20;nan;102652.59;5032319;28;19921;-85
2023/02/07 05:27:08;;;;;;;;;;;;;;;-3.24;nan;102658.69;5018290;28;19918;-85
2023/02/07 05:29:33;;;;;;;;;;;;;;;-3.25;nan;102656.97;5034947;28;19932;-85
2023/02/07 05:34:43;;;;;;;;;;;;;;;-3.32;nan;102649.25;5034054;28;20302;-85
2023/02/07 05:37:08;;;;;;;;;;;;;;;-3.36;nan;102656.19;5035335;28;19917;-84
2023/02/07 05:39:36;;;;;;;;;;;;;;;-3.40;nan;102661.41;5036032;28;19921;-85
2023/02/07 05:42:02;;;;;;;;;;;;;;;-3.39;nan;102671.72;5035484;28;20459;-85
2023/02/07 05:44:27;;;;;;;;;;;;;;;-3.41;nan;102668.28;5033119;28;19977;-85
2023/02/07 05:46:52;;;;;;;;;;;;;;;-3.45;nan;102664.00;5051939;28;19917;-85
2023/02/07 05:49:18;;;;;;;;;;;;;;;-3.52;nan;102670.94;5034369;28;20004;-86
2023/02/07 05:51:43;;;;;;;;;;;;;;;-3.56;nan;102663.19;5029708;28;19924;-85
2023/02/07 05:54:09;;;;;;;;;;;;;;;-3.60;nan;102667.50;5035026;28;19937;-86
2023/02/07 05:56:34;;;;;;;;;;;;;;;-3.64;nan;102666.69;5030974;28;19922;-85
2023/02/07 05:59:00;;;;;;;;;;;;;;;-3.64;nan;102665.84;5026373;28;19975;-85
2023/02/07 06:01:25;;;;;;;;;;;;;;;-3.67;nan;102671.00;5030501;28;19917;-85
2023/02/07 06:03:50;;;;;;;;;;;;;;;-3.68;nan;102662.41;5033067;28;20430;-85
2023/02/07 06:06:16;;;;;;;;;;;;;;;-3.70;nan;102665.84;5032707;28;19927;-85
2023/02/07 06:08:41;;;;;;;;;;;;;;;-3.75;nan;102670.19;5035748;28;19917;-84
2023/02/07 06:11:07;;;;;;;;;;;;;;;-3.80;nan;102669.38;5034225;28;19924;-85
2023/02/07 06:13:32;;;;;;;;;;;;;;;-3.81;nan;102678.84;5032288;28;19943;-85
2023/02/07 06:15:57;;;;;;;;;;;;;;;-3.81;nan;102680.56;5047550;28;19924;-84
2023/02/07 06:18:23;;;;;;;;;;;;;;;-3.83;nan;102688.34;5035332;28;19923;-85
2023/02/07 06:20:50;;;;;;;;;;;;;;;-3.84;nan;102694.34;5034832;28;19952;-85
2023/02/07 06:23:15;;;;;;;;;;;;;;;-3.86;nan;102683.19;5036774;28;19980;-85
2023/02/07 06:25:43;;;;;;;;;;;;;;;-3.86;nan;102683.19;5035559;28;20273;-85
2023/02/07 06:28:09;;;;;;;;;;;;;;;-3.79;nan;102684.88;5048357;28;19925;-85
2023/02/07 06:30:34;;;;;;;;;;;;;;;-3.74;nan;102680.53;5034359;28;20369;-85
2023/02/07 06:32:59;;;;;;;;;;;;;;;-3.77;nan;102680.53;5032656;28;19967;-85
2023/02/07 06:35:24;;;;;;;;;;;;;;;-3.78;nan;102676.25;5021877;28;19962;-85
2023/02/07 06:37:49;;;;;;;;;;;;;;;-3.78;nan;102672.81;5028685;28;19917;-85
2023/02/07 06:40:15;;;;;;;;;;;;;;;-3.78;nan;102673.66;5015357;28;19925;-85
2023/02/07 06:42:40;;;;;;;;;;;;;;;-3.80;nan;102672.78;5042181;28;20594;-85
2023/02/07 06:45:05;;;;;;;;;;;;;;;-3.78;nan;102677.97;5030197;28;19925;-85
2023/02/07 06:47:30;;;;;;;;;;;;;;;-3.77;nan;102684.84;5026926;28;19917;-85
2023/02/07 06:49:56;;;;;;;;;;;;;;;-3.82;nan;102695.22;5035476;28;19923;-86
2023/02/07 06:52:21;;;;;;;;;;;;;;;-3.81;nan;102696.06;5021737;28;24627;-85
2023/02/07 06:54:46;;;;;;;;;;;;;;;-3.80;nan;102703.81;5024603;28;19918;-87
2023/02/07 06:57:11;;;;;;;;;;;;;;;-3.81;nan;102704.69;5015360;28;20008;-87
2023/02/07 06:59:36;;;;;;;;;;;;;;;-3.81;nan;102716.75;5028443;28;20559;-87
2023/02/07 07:02:02;;;;;;;;;;;;;;;-3.78;nan;102714.16;5030838;28;19928;-87
2023/02/07 07:04:28;;;;;;;;;;;;;;;-3.79;nan;102720.19;5015810;28;19924;-87
2023/02/07 07:06:53;;;;;;;;;;;;;;;-3.81;nan;102716.75;5012125;28;20432;-85
2023/02/07 07:09:18;;;;;;;;;;;;;;;-3.78;nan;102724.50;5033192;28;19940;-86
2023/02/07 07:11:43;;;;;;;;;;;;;;;-3.71;nan;102716.72;5038374;28;20571;-87
2023/02/07 07:14:09;;;;;;;;;;;;;;;-3.61;nan;102721.84;5027160;28;19901;-88
2023/02/07 07:16:35;;;;;;;;;;;;;;;-3.57;nan;102728.72;5028991;28;19916;-86
2023/02/07 07:19:00;;;;;;;;;;;;;;;-3.55;nan;102722.69;5031714;28;19999;-85
2023/02/07 07:21:26;;;;;;;;;;;;;;;-3.48;nan;102729.53;5030471;28;19917;-87
2023/02/07 07:23:52;;;;;;;;;;;;;;;-3.34;nan;102733.78;5019400;28;19917;-84
2023/02/07 07:26:17;;;;;;;;;;;;;;;-3.20;nan;102748.34;5021995;28;19913;-87
2023/02/07 07:28:42;;;;;;;;;;;;;;;-3.10;nan;102744.00;5023619;28;19917;-86
2023/02/07 07:31:08;;;;;;;;;;;;;;;-2.97;nan;102746.50;5032403;28;19968;-86
2023/02/07 07:33:33;;;;;;;;;;;;;;;-2.83;nan;102755.88;5029371;28;20322;-85
2023/02/07 07:35:59;;;;;;;;;;;;;;;-2.75;nan;102745.47;5036564;28;19928;-83
2023/02/07 07:38:24;;;;;;;;;;;;;;;-2.70;nan;102745.44;5037964;28;19919;-84
2023/02/07 07:40:50;;;;;;;;;;;;;;;-2.60;nan;102747.06;5017024;28;20045;-84
2023/02/07 07:43:15;;;;;;;;;;;;;;;-2.52;nan;102750.47;5023805;28;20459;-84
2023/02/07 07:45:40;;;;;;;;;;;;;;;-2.43;nan;102755.59;5029519;28;19942;-85
2023/02/07 07:48:05;;;;;;;;;;;;;;;-2.36;nan;102757.25;5026511;28;19939;-84
2023/02/07 07:50:30;;;;;;;;;;;;;;;-2.27;nan;102755.44;5027632;28;19917;-85
2023/02/07 07:52:55;;;;;;;;;;;;;;;-2.20;nan;102760.53;5028660;28;20543;-85
2023/02/07 07:55:22;;;;;;;;;;;;;;;-2.11;nan;102757.00;5027087;28;19925;-84
2023/02/07 07:57:47;;;;;;;;;;;;;;;-2.07;nan;102758.69;5028655;28;19913;-85
2023/02/07 08:00:12;;;;;;;;;;;;;;;-2.03;nan;102749.13;5018826;28;19923;-85
2023/02/07 08:02:37;;;;;;;;;;;;;;;-2.00;nan;102755.16;5028132;28;20286;-84
2023/02/07 08:05:03;;;;;;;;;;;;;;;-1.97;nan;102744.75;5027606;28;20032;-86
2023/02/07 08:07:28;;;;;;;;;;;;;;;-1.95;nan;102753.38;5034318;28;19926;-85
2023/02/07 08:09:53;;;;;;;;;;;;;;;-1.87;nan;102750.69;5033180;28;19917;-85
2023/02/07 08:12:18;;;;;;;;;;;;;;;-1.79;nan;102746.28;5032276;28;19980;-84
2023/02/07 08:14:44;;;;;;;;;;;;;;;-1.73;nan;102747.94;5029356;28;19913;-85
2023/02/07 08:17:09;;;;;;;;;;;;;;;-1.65;nan;102751.28;5027210;28;19916;-87
2023/02/07 08:19:37;;;;;;;;;;;;;;;-1.59;nan;102759.00;5029376;28;19917;-87
2023/02/07 08:22:02;;;;;;;;;;;;;;;-1.51;nan;102756.31;5028445;28;19925;-85
2023/02/07 08:24:27;;;;;;;;;;;;;;;-1.43;nan;102757.09;5027483;28;20294;-87
2023/02/07 08:26:52;;;;;;;;;;;;;;;-1.38;nan;102749.22;5021593;28;19917;-85
2023/02/07 08:29:17;;;;;;;;;;;;;;;-1.31;nan;102746.56;5022322;28;20363;-86
2023/02/07 08:31:42;;;;;;;;;;;;;;;-1.20;nan;102753.31;5032360;28;19967;-85
2023/02/07 08:34:08;;;;;;;;;;;;;;;-1.11;nan;102753.19;5042315;28;20398;-88
2023/02/07 08:36:33;;;;;;;;;;;;;;;-1.08;nan;102751.41;5037702;28;19948;-88
2023/02/07 08:38:58;;;;;;;;;;;;;;;-1.02;nan;102755.66;5027633;28;19961;-87
2023/02/07 08:41:23;;;;;;;;;;;;;;;-0.97;nan;102747.81;5032484;28;20402;-83
2023/02/07 08:43:49;;;;;;;;;;;;;;;-0.93;nan;102758.13;5026741;28;19917;-86
2023/02/07 08:46:14;;;;;;;;;;;;;;;-0.82;nan;102767.50;5028849;28;19917;-86
2023/02/07 08:48:39;;;;;;;;;;;;;;;-0.71;nan;102765.59;5031908;28;19917;-88
2023/02/07 08:51:05;;;;;;;;;;;;;;;-0.63;nan;102766.31;5029528;28;20561;-87
2023/02/07 08:53:30;;;;;;;;;;;;;;;-0.52;nan;102764.41;5026625;28;20371;-87
2023/02/07 08:55:55;;;;;;;;;;;;;;;-0.45;nan;102771.22;5022383;28;20485;-87
2023/02/07 08:58:21;;;;;;;;;;;;;;;-0.41;nan;102768.56;5024772;28;19917;-85
2023/02/07 09:00:46;;;;;;;;;;;;;;;-0.38;nan;102769.38;5031262;28;19944;-86
2023/02/07 09:03:11;;;;;;;;;;;;;;;-0.19;nan;102780.31;5028976;28;20016;-87
2023/02/07 09:05:36;;;;;;;;;;;;;;;-0.13;nan;102781.94;5034860;28;19970;-88
2023/02/07 09:08:02;;;;;;;;;;;;;;;-0.10;nan;102774.94;5031922;28;19920;-86
2023/02/07 09:10:27;;;;;;;;;;;;;;;0.02;nan;102768.66;5027199;28;20492;-86
2023/02/07 09:12:52;;;;;;;;;;;;;;;0.08;nan;102772.91;5025083;28;19921;-85
2023/02/07 09:15:18;;;;;;;;;;;;;;;0.13;nan;102769.31;5024189;28;19971;-86
2023/02/07 09:17:43;;;;;;;;;;;;;;;0.23;nan;102766.53;5027206;28;19921;-84
2023/02/07 09:20:09;;;;;;;;;;;;;;;0.23;nan;102769.16;5025116;28;19917;-86
2023/02/07 09:23:16;;;;;;;;;;;;;;;0.29;nan;102769.03;5031274;28;19928;-86
2023/02/07 09:25:19;;;;;;;;;;;;;;;0.24;nan;102766.53;5027466;28;20531;-87
2023/02/07 09:27:44;;;;;;;;;;;;;;;0.33;nan;102766.31;5025282;28;19917;-88
2023/02/07 09:30:10;;;;;;;;;;;;;;;0.35;nan;102768.91;5012207;28;19917;-86
2023/02/07 09:32:35;;;;;;;;;;;;;;;0.36;nan;102763.69;5012512;28;19917;-85
2023/02/07 09:35:00;;;;;;;;;;;;;;;0.38;nan;102771.44;5023276;28;19968;-87
2023/02/07 09:37:25;;;;;;;;;;;;;;;0.42;nan;102778.28;5023525;28;19920;-87
2023/02/07 09:39:50;;;;;;;;;;;;;;;0.50;nan;102767.72;5036349;28;19939;-88
2023/02/07 09:42:51;;;;;;;;;;;;;;;0.53;nan;102767.69;5031414;28;20032;-88
2023/02/07 09:45:18;;;;;;;;;;;;;;;0.65;nan;102770.03;5017529;28;20564;-88
2023/02/07 09:47:45;;;;;;;;;;;;;;;0.73;nan;102772.47;5026152;28;19916;-89
2023/02/07 09:50:13;;;;;;;;;;;;;;;0.82;nan;102770.50;5030765;28;19937;-88
2023/02/07 09:52:48;;;;;;;;;;;;;;;0.88;nan;102764.28;5036287;28;19924;-87
2023/02/07 09:55:17;;;;;;;;;;;;;;;1.04;nan;102754.41;5032983;28;19917;-87
2023/02/07 09:57:48;;;;;;;;;;;;;;;1.05;nan;102756.97;5020666;28;19927;-89
2023/02/07 10:00:22;;;;;;;;;;;;;;;1.11;nan;102755.97;5029697;28;20172;-88
2023/02/07 10:03:06;;;;;;;;;;;;;;;1.14;nan;102752.44;5032087;28;20259;-89
2023/02/07 10:05:45;;;;;;;;;;;;;;;1.16;nan;102758.47;5032154;28;19940;-90
2023/02/07 10:08:15;;;;;;;;;;;;;;;1.20;nan;102763.56;5032079;28;19937;-87
2023/02/07 10:10:44;;;;;;;;;;;;;;;1.36;nan;102758.84;5023080;28;19932;-84
2023/02/07 10:13:10;;;;;;;;;;;;;;;1.43;nan;102759.53;5031698;28;19917;-83
2023/02/07 10:15:38;;;;;;;;;;;;;;;1.47;nan;102763.78;5030463;28;19917;-86
2023/02/07 10:18:21;;;;;;;;;;;;;;;1.48;nan;102758.56;5029365;28;20355;-87
2023/02/07 10:20:50;;;;;;;;;;;;;;;1.42;nan;102756.09;5035507;28;19967;-90
2023/02/07 10:23:30;;;;;;;;;;;;;;;1.48;nan;102760.31;5039219;28;19998;-88
2023/02/07 10:25:58;;;;;;;;;;;;;;;1.55;nan;102761.00;5041085;28;19921;-88
2023/02/07 10:28:35;;;;;;;;;;;;;;;1.62;nan;102749.50;5041199;28;20267;-85
2023/02/07 10:31:04;;;;;;;;;;;;;;;1.64;nan;102745.97;5039044;28;19920;-86
2023/02/07 10:33:34;;;;;;;;;;;;;;;1.78;nan;102747.38;5026729;28;19932;-84
2023/02/07 10:36:05;;;;;;;;;;;;;;;1.83;nan;102746.34;5024668;28;19998;-86
2023/02/07 10:38:52;;;;;;;;;;;;;;;1.92;nan;102746.09;5030275;28;19916;-85
2023/02/07 10:41:27;;;;;;;;;;;;;;;1.95;nan;102742.53;5037333;28;20005;-86
2023/02/07 10:43:53;;;;;;;;;;;;;;;2.07;nan;102743.97;5034073;28;20012;-86
2023/02/07 10:46:20;;;;;;;;;;;;;;;1.98;nan;102744.22;5030902;28;19944;-89
2023/02/07 10:48:46;;;;;;;;;;;;;;;2.09;nan;102743.03;5029901;28;20306;-88
2023/02/07 10:51:11;;;;;;;;;;;;;;;2.20;nan;102750.56;5044492;28;19917;-86
2023/02/07 10:53:47;;;;;;;;;;;;;;;2.38;nan;102737.88;5037535;28;19917;-87
2023/02/07 10:56:21;;;;;;;;;;;;;;;2.37;nan;102731.81;5028820;28;20368;-88
2023/02/07 10:58:46;;;;;;;;;;;;;;;2.54;nan;102726.09;5034230;28;19921;-90
2023/02/07 11:01:19;;;;;;;;;;;;;;;2.61;nan;102718.94;5030881;28;19921;-86
2023/02/07 11:03:45;;;;;;;;;;;;;;;2.75;nan;102707.16;5038147;28;19939;-88
2023/02/07 11:06:13;;;;;;;;;;;;;;;2.84;nan;102719.09;5033320;28;19913;-87
2023/02/07 11:08:39;;;;;;;;;;;;;;;3.03;nan;102714.13;5035184;28;19913;-86
2023/02/07 11:11:23;;;;;;;;;;;;;;;4.08;nan;102710.56;5042313;28;19948;-87
2023/02/07 11:13:49;;;;;;;;;;;;;;;6.02;nan;102714.13;5025425;28;20310;-87
2023/02/07 11:16:14;;;;;;;;;;;;;;;;;;5040792;28;19913;-87
2023/02/07 11:18:40;;;;;;;;;;;;;;;;;;5032965;28;19967;-87
2023/02/07 11:21:05;;;;;;;;;;;;;;;;;;5036977;28;20333;-86
2023/02/07 11:23:30;;;;;;;;;;;;;;;;;;5030468;28;20608;-87
2023/02/07 11:25:55;;;;;;;;;;;;;;;;;;5029019;28;19913;-86
2023/02/07 11:28:20;;;;;;;;;;;;;;;;;;5028496;28;19913;-87
2023/02/07 11:30:45;;;;;;;;;;;;;;;;;;5032628;28;19916;-87
2023/02/07 11:33:11;;;;;;;;;;;;;;;;;;5027557;28;19978;-87
2023/02/07 11:35:39;;;;;;;;;;;;;;;;;;5018506;28;19956;-87
2023/02/07 11:38:04;;;;;;;;;;;;;;;;;;5040715;28;19943;-86
2023/02/07 11:40:29;;;;;;;;;;;;;;;;;;5035851;28;19924;-86
2023/02/07 11:42:54;;;;;;;;;;;;;;;;;;5020634;28;19924;-87
2023/02/07 11:45:19;;;;;;;;;;;;;;;;;;5035858;28;19923;-86
2023/02/07 11:47:44;;;;;;;;;;;;;;;;;;5025609;28;20414;-86
2023/02/07 11:50:09;;;;;;;;;;;;;;;;;;5028711;28;19924;-86
2023/02/07 11:52:35;;;;;;;;;;;;;;;;;;5035199;28;19912;-86
2023/02/07 11:55:00;;;;;;;;;;;;;;;;;;5047939;28;19923;-86
2023/02/07 11:57:25;;;;;;;;;;;;;;;;;;5030930;28;19913;-87
2023/02/07 11:59:50;;;;;;;;;;;;;;;;;;5030307;28;20302;-86
2023/02/07 12:02:15;;;;;;;;;;;;;;;;;;5028109;28;19917;-91
2023/02/07 12:04:40;;;;;;;;;;;;;;;6.76;nan;102688.75;5021044;28;20012;-88
2023/02/07 12:07:24;;;;;;;;;;;;;;;6.55;nan;102690.66;5028801;28;19939;-90
2023/02/07 12:09:54;;;;;;;;;;;;;;;6.21;nan;102691.34;5032981;28;20346;-85
2023/02/07 12:12:37;;;;;;;;;;;;;;;6.09;nan;102690.13;5031615;28;19923;-86
2023/02/07 12:15:07;;;;;;;;;;;;;;;5.59;nan;102684.47;5036121;28;20260;-89
2023/02/07 12:17:45;;;;;;;;;;;;;;;5.48;nan;102683.16;5031184;28;19917;-90
2023/02/07 12:20:15;;;;;;;;;;;;;;;5.46;nan;102678.91;5026905;28;19975;-88
2023/02/07 12:22:46;;;;;;;;;;;;;;;5.28;nan;102680.53;5027390;28;20290;-87
2023/02/07 12:25:20;;;;;;;;;;;;;;;5.20;nan;102675.59;5031029;28;19917;-87
2023/02/07 12:27:47;;;;;;;;;;;;;;;5.37;nan;102679.28;5030017;28;20594;-87
2023/02/07 12:30:25;;;;;;;;;;;;;;;5.42;nan;102672.06;5022398;28;20313;-88
2023/02/07 12:32:53;;;;;;;;;;;;;;;5.27;nan;102679.69;5035580;28;19913;-89
2023/02/07 12:35:28;;;;;;;;;;;;;;;5.31;nan;102678.63;5036276;28;20400;-89
2023/02/07 12:38:12;;;;;;;;;;;;;;;5.22;nan;102673.78;5039832;28;20281;-89
2023/02/07 12:40:41;;;;;;;;;;;;;;;5.30;nan;102665.56;5035582;28;19983;-89
2023/02/07 12:43:13;;;;;;;;;;;;;;;5.31;nan;102664.63;5032738;28;20035;-86
2023/02/07 12:45:50;;;;;;;;;;;;;;;5.28;nan;102660.38;5040083;28;19913;-87
2023/02/07 12:48:35;;;;;;;;;;;;;;;5.28;nan;102667.41;5037182;28;19921;-87
2023/02/07 12:51:17;;;;;;;;;;;;;;;5.29;nan;102659.47;5034329;28;19977;-84
2023/02/07 12:53:55;;;;;;;;;;;;;;;5.26;nan;102661.38;5032290;28;20393;-86
2023/02/07 12:56:20;;;;;;;;;;;;;;;5.23;nan;102664.97;5029415;28;19916;-87
2023/02/07 12:58:51;;;;;;;;;;;;;;;5.20;nan;102659.03;5032789;28;19921;-90
2023/02/07 13:01:27;;;;;;;;;;;;;;;5.18;nan;102658.22;5045924;28;19917;-86
2023/02/07 13:03:52;;;;;;;;;;;;;;;5.21;nan;102658.94;5034639;28;19923;-85
2023/02/07 13:06:24;;;;;;;;;;;;;;;5.21;nan;102655.47;5037499;28;19924;-89
2023/02/07 13:09:10;;;;;;;;;;;;;;;5.18;nan;102655.59;5033269;28;19985;-86
2023/02/07 13:11:36;;;;;;;;;;;;;;;5.14;nan;102656.63;4993474;28;20015;-86
2023/02/07 13:14:01;;;;;;;;;;;;;;;5.04;nan;102661.41;5032438;28;19971;-86
2023/02/07 13:16:48;;;;;;;;;;;;;;;5.08;nan;102658.59;5034691;28;20161;-85
2023/02/07 13:19:27;;;;;;;;;;;;;;;5.10;nan;102653.28;5035727;28;19924;-87